sensor_id;sensor_type;location;lat;lon;timestamp;pressure;altitude;pressure_sealevel;temperature;humidity
47082;BME280;33066;49.296;14.470;2023-04-27T00:00:35;97155.30;;;11.53;34.93
47082;BME280;33066;49.296;14.470;2023-04-27T00:03:01;97154.00;;;11.29;34.90
47082;BME280;33066;49.296;14.470;2023-04-27T00:05:26;97153.87;;;11.48;34.92
47082;BME280;33066;49.296;14.470;2023-04-27T00:07:51;97154.21;;;11.48;34.94
47082;BME280;33066;49.296;14.470;2023-04-27T00:10:17;97152.44;;;11.53;34.85
47082;BME280;33066;49.296;14.470;2023-04-27T00:12:43;97150.00;;;11.42;34.95
47082;BME280;33066;49.296;14.470;2023-04-27T00:15:09;97147.46;;;11.36;34.97
47082;BME280;33066;49.296;14.470;2023-04-27T00:17:33;97149.10;;;11.24;35.26
47082;BME280;33066;49.296;14.470;2023-04-27T00:19:59;97148.42;;;11.52;35.20
47082;BME280;33066;49.296;14.470;2023-04-27T00:22:24;97143.83;;;11.40;34.99
47082;BME280;33066;49.296;14.470;2023-04-27T00:24:49;97141.84;;;11.64;34.98
47082;BME280;33066;49.296;14.470;2023-04-27T00:27:14;97141.00;;;11.67;34.85
47082;BME280;33066;49.296;14.470;2023-04-27T00:29:40;97141.00;;;11.67;34.74
47082;BME280;33066;49.296;14.470;2023-04-27T00:32:06;97140.84;;;11.46;34.69
47082;BME280;33066;49.296;14.470;2023-04-27T00:34:31;97141.58;;;11.45;34.78
47082;BME280;33066;49.296;14.470;2023-04-27T00:36:56;97138.65;;;11.73;34.75
47082;BME280;33066;49.296;14.470;2023-04-27T00:39:22;97135.73;;;11.85;34.61
47082;BME280;33066;49.296;14.470;2023-04-27T00:41:46;97135.62;;;11.42;34.28
47082;BME280;33066;49.296;14.470;2023-04-27T00:44:12;97137.59;;;11.96;34.14
47082;BME280;33066;49.296;14.470;2023-04-27T00:46:38;97134.69;;;11.59;34.09
47082;BME280;33066;49.296;14.470;2023-04-27T00:49:03;97137.02;;;11.58;34.19
47082;BME280;33066;49.296;14.470;2023-04-27T00:51:29;97138.05;;;11.53;34.26
47082;BME280;33066;49.296;14.470;2023-04-27T00:53:56;97140.83;;;11.14;34.47
47082;BME280;33066;49.296;14.470;2023-04-27T00:56:18;97140.12;;;11.56;34.51
47082;BME280;33066;49.296;14.470;2023-04-27T00:58:44;97138.46;;;11.28;34.60
47082;BME280;33066;49.296;14.470;2023-04-27T01:01:09;97136.74;;;11.25;34.91
47082;BME280;33066;49.296;14.470;2023-04-27T01:03:35;97135.87;;;11.28;34.98
47082;BME280;33066;49.296;14.470;2023-04-27T01:06:00;97136.74;;;11.29;35.08
47082;BME280;33066;49.296;14.470;2023-04-27T01:08:25;97141.13;;;11.28;34.46
47082;BME280;33066;49.296;14.470;2023-04-27T01:10:51;97137.29;;;11.35;34.20
47082;BME280;33066;49.296;14.470;2023-04-27T01:13:17;97138.76;;;11.05;34.16
47082;BME280;33066;49.296;14.470;2023-04-27T01:15:41;97135.69;;;11.20;34.23
47082;BME280;33066;49.296;14.470;2023-04-27T01:18:07;97133.99;;;11.29;34.21
47082;BME280;33066;49.296;14.470;2023-04-27T01:20:32;97132.40;;;11.37;34.25
47082;BME280;33066;49.296;14.470;2023-04-27T01:22:58;97130.43;;;11.28;34.48
47082;BME280;33066;49.296;14.470;2023-04-27T01:25:24;97136.39;;;11.15;34.75
47082;BME280;33066;49.296;14.470;2023-04-27T01:27:48;97136.88;;;11.20;34.81
47082;BME280;33066;49.296;14.470;2023-04-27T01:30:14;97134.85;;;11.21;34.77
47082;BME280;33066;49.296;14.470;2023-04-27T01:32:39;97136.26;;;11.22;34.72
47082;BME280;33066;49.296;14.470;2023-04-27T01:35:05;97137.09;;;11.08;34.70
47082;BME280;33066;49.296;14.470;2023-04-27T01:37:30;97141.33;;;11.39;34.53
47082;BME280;33066;49.296;14.470;2023-04-27T01:39:55;97141.99;;;11.36;34.07
47082;BME280;33066;49.296;14.470;2023-04-27T01:42:21;97141.93;;;11.32;33.87
47082;BME280;33066;49.296;14.470;2023-04-27T01:44:47;97142.82;;;11.29;33.78
47082;BME280;33066;49.296;14.470;2023-04-27T01:47:14;97141.84;;;11.24;34.03
47082;BME280;33066;49.296;14.470;2023-04-27T01:49:37;97141.92;;;11.00;33.96
47082;BME280;33066;49.296;14.470;2023-04-27T01:52:03;97140.98;;;10.99;33.58
47082;BME280;33066;49.296;14.470;2023-04-27T01:54:29;97141.75;;;10.99;33.22
47082;BME280;33066;49.296;14.470;2023-04-27T01:56:53;97144.78;;;11.13;33.73
47082;BME280;33066;49.296;14.470;2023-04-27T01:59:19;97149.45;;;10.98;34.49
47082;BME280;33066;49.296;14.470;2023-04-27T02:01:44;97150.73;;;10.94;34.76
47082;BME280;33066;49.296;14.470;2023-04-27T02:04:09;97150.66;;;10.86;34.85
47082;BME280;33066;49.296;14.470;2023-04-27T02:06:35;97152.18;;;10.84;34.76
47082;BME280;33066;49.296;14.470;2023-04-27T02:09:00;97149.30;;;10.92;34.71
47082;BME280;33066;49.296;14.470;2023-04-27T02:11:26;97154.79;;;10.98;34.84
47082;BME280;33066;49.296;14.470;2023-04-27T02:13:51;97152.05;;;10.98;34.95
47082;BME280;33066;49.296;14.470;2023-04-27T02:16:16;97153.72;;;10.91;35.01
47082;BME280;33066;49.296;14.470;2023-04-27T02:18:41;97157.29;;;11.16;35.24
47082;BME280;33066;49.296;14.470;2023-04-27T02:21:08;97161.12;;;10.71;35.31
47082;BME280;33066;49.296;14.470;2023-04-27T02:23:31;97162.71;;;10.72;34.97
47082;BME280;33066;49.296;14.470;2023-04-27T02:25:57;97162.21;;;10.63;35.06
47082;BME280;33066;49.296;14.470;2023-04-27T02:28:23;97162.19;;;10.70;34.52
47082;BME280;33066;49.296;14.470;2023-04-27T02:30:49;97166.39;;;10.80;34.62
47082;BME280;33066;49.296;14.470;2023-04-27T02:33:14;97167.33;;;10.79;34.34
47082;BME280;33066;49.296;14.470;2023-04-27T02:35:39;97165.28;;;10.80;34.25
47082;BME280;33066;49.296;14.470;2023-04-27T02:38:05;97166.42;;;11.42;34.61
47082;BME280;33066;49.296;14.470;2023-04-27T02:40:30;97163.79;;;10.96;34.72
47082;BME280;33066;49.296;14.470;2023-04-27T02:42:56;97162.22;;;10.83;34.91
47082;BME280;33066;49.296;14.470;2023-04-27T02:45:21;97162.08;;;10.75;35.05
47082;BME280;33066;49.296;14.470;2023-04-27T02:47:46;97159.14;;;10.80;35.21
47082;BME280;33066;49.296;14.470;2023-04-27T02:50:12;97156.22;;;10.47;35.28
47082;BME280;33066;49.296;14.470;2023-04-27T02:52:37;97153.54;;;10.61;35.41
47082;BME280;33066;49.296;14.470;2023-04-27T02:55:04;97155.78;;;10.43;35.67
47082;BME280;33066;49.296;14.470;2023-04-27T02:57:28;97154.41;;;10.53;35.86
47082;BME280;33066;49.296;14.470;2023-04-27T02:59:53;97155.49;;;10.36;35.78
47082;BME280;33066;49.296;14.470;2023-04-27T03:02:19;97153.50;;;10.28;35.91
47082;BME280;33066;49.296;14.470;2023-04-27T03:04:44;97151.22;;;10.40;35.78
47082;BME280;33066;49.296;14.470;2023-04-27T03:07:09;97149.99;;;10.44;35.99
47082;BME280;33066;49.296;14.470;2023-04-27T03:09:35;97149.41;;;10.26;35.99
47082;BME280;33066;49.296;14.470;2023-04-27T03:13:01;97150.93;;;10.52;35.50
47082;BME280;33066;49.296;14.470;2023-04-27T03:15:26;97154.85;;;10.61;35.41
47082;BME280;33066;49.296;14.470;2023-04-27T03:17:52;97156.04;;;10.56;35.41
47082;BME280;33066;49.296;14.470;2023-04-27T03:20:17;97155.57;;;10.61;35.01
47082;BME280;33066;49.296;14.470;2023-04-27T03:22:43;97158.06;;;10.72;34.92
47082;BME280;33066;49.296;14.470;2023-04-27T03:25:08;97157.81;;;10.71;34.70
47082;BME280;33066;49.296;14.470;2023-04-27T03:27:34;97158.14;;;10.70;34.52
47082;BME280;33066;49.296;14.470;2023-04-27T03:30:01;97159.23;;;10.65;34.88
47082;BME280;33066;49.296;14.470;2023-04-27T03:32:25;97157.72;;;10.66;34.78
47082;BME280;33066;49.296;14.470;2023-04-27T03:34:50;97157.79;;;10.58;34.83
47082;BME280;33066;49.296;14.470;2023-04-27T03:37:15;97160.22;;;10.97;35.19
47082;BME280;33066;49.296;14.470;2023-04-27T03:39:41;97159.67;;;10.67;35.47
47082;BME280;33066;49.296;14.470;2023-04-27T03:42:08;97158.37;;;10.62;35.41
47082;BME280;33066;49.296;14.470;2023-04-27T03:44:31;97160.22;;;10.30;35.37
47082;BME280;33066;49.296;14.470;2023-04-27T03:46:59;97158.73;;;10.18;35.62
47082;BME280;33066;49.296;14.470;2023-04-27T03:49:23;97160.23;;;10.52;35.62
47082;BME280;33066;49.296;14.470;2023-04-27T03:51:49;97163.57;;;10.63;35.21
47082;BME280;33066;49.296;14.470;2023-04-27T03:54:13;97166.95;;;10.29;35.12
47082;BME280;33066;49.296;14.470;2023-04-27T03:56:39;97168.88;;;10.78;35.05
47082;BME280;33066;49.296;14.470;2023-04-27T03:59:05;97167.98;;;10.37;34.90
47082;BME280;33066;49.296;14.470;2023-04-27T04:01:30;97170.03;;;10.48;34.85
47082;BME280;33066;49.296;14.470;2023-04-27T04:03:56;97170.04;;;10.90;35.40
47082;BME280;33066;49.296;14.470;2023-04-27T04:06:21;97169.04;;;10.71;36.80
47082;BME280;33066;49.296;14.470;2023-04-27T04:08:46;97171.84;;;10.87;35.57
47082;BME280;33066;49.296;14.470;2023-04-27T04:11:12;97172.83;;;11.12;35.09
47082;BME280;33066;49.296;14.470;2023-04-27T04:13:37;97175.98;;;10.81;35.20
47082;BME280;33066;49.296;14.470;2023-04-27T04:16:05;97178.04;;;10.76;36.06
47082;BME280;33066;49.296;14.470;2023-04-27T04:18:28;97176.61;;;10.84;35.31
47082;BME280;33066;49.296;14.470;2023-04-27T04:20:54;97178.51;;;10.89;35.65
47082;BME280;33066;49.296;14.470;2023-04-27T04:23:19;97186.27;;;11.21;35.34
47082;BME280;33066;49.296;14.470;2023-04-27T04:25:45;97187.06;;;11.08;35.10
47082;BME280;33066;49.296;14.470;2023-04-27T04:28:10;97187.39;;;11.17;34.92
47082;BME280;33066;49.296;14.470;2023-04-27T04:30:35;97188.80;;;11.20;34.33
47082;BME280;33066;49.296;14.470;2023-04-27T04:33:00;97191.20;;;11.29;34.40
47082;BME280;33066;49.296;14.470;2023-04-27T04:35:26;97193.65;;;11.33;34.11
47082;BME280;33066;49.296;14.470;2023-04-27T04:37:51;97193.79;;;11.21;33.96
47082;BME280;33066;49.296;14.470;2023-04-27T04:40:17;97195.12;;;11.17;34.66
47082;BME280;33066;49.296;14.470;2023-04-27T04:42:42;97197.48;;;11.16;35.08
47082;BME280;33066;49.296;14.470;2023-04-27T04:45:08;97199.93;;;10.94;35.13
47082;BME280;33066;49.296;14.470;2023-04-27T04:47:33;97204.44;;;11.16;35.17
47082;BME280;33066;49.296;14.470;2023-04-27T04:49:59;97204.64;;;11.06;35.21
47082;BME280;33066;49.296;14.470;2023-04-27T04:52:24;97206.43;;;11.10;35.66
47082;BME280;33066;49.296;14.470;2023-04-27T04:54:50;97206.20;;;10.85;34.69
47082;BME280;33066;49.296;14.470;2023-04-27T04:57:14;97207.21;;;11.02;34.77
47082;BME280;33066;49.296;14.470;2023-04-27T04:59:40;97210.16;;;11.06;35.03
47082;BME280;33066;49.296;14.470;2023-04-27T05:02:05;97214.19;;;11.13;34.15
47082;BME280;33066;49.296;14.470;2023-04-27T05:04:31;97214.42;;;11.07;33.67
47082;BME280;33066;49.296;14.470;2023-04-27T05:06:56;97212.58;;;11.04;33.51
47082;BME280;33066;49.296;14.470;2023-04-27T05:09:22;97214.54;;;10.96;33.57
47082;BME280;33066;49.296;14.470;2023-04-27T05:11:48;97216.38;;;11.03;33.46
47082;BME280;33066;49.296;14.470;2023-04-27T05:14:12;97218.07;;;10.84;33.37
47082;BME280;33066;49.296;14.470;2023-04-27T05:16:39;97221.65;;;11.18;33.54
47082;BME280;33066;49.296;14.470;2023-04-27T05:19:03;97223.27;;;11.01;33.78
47082;BME280;33066;49.296;14.470;2023-04-27T05:21:28;97220.06;;;11.21;33.91
47082;BME280;33066;49.296;14.470;2023-04-27T05:23:54;97222.25;;;11.23;33.85
47082;BME280;33066;49.296;14.470;2023-04-27T05:26:19;97221.28;;;11.29;33.84
47082;BME280;33066;49.296;14.470;2023-04-27T05:28:44;97217.89;;;11.23;33.56
47082;BME280;33066;49.296;14.470;2023-04-27T05:31:10;97216.97;;;11.37;33.54
47082;BME280;33066;49.296;14.470;2023-04-27T05:33:35;97217.46;;;11.50;33.60
47082;BME280;33066;49.296;14.470;2023-04-27T05:36:01;97218.22;;;11.42;33.90
47082;BME280;33066;49.296;14.470;2023-04-27T05:38:27;97219.10;;;11.26;33.88
47082;BME280;33066;49.296;14.470;2023-04-27T05:40:53;97221.34;;;11.61;33.77
47082;BME280;33066;49.296;14.470;2023-04-27T05:43:18;97225.35;;;11.58;32.97
47082;BME280;33066;49.296;14.470;2023-04-27T05:45:43;97226.44;;;11.30;32.78
47082;BME280;33066;49.296;14.470;2023-04-27T05:48:08;97223.14;;;11.59;32.66
47082;BME280;33066;49.296;14.470;2023-04-27T05:50:35;97225.57;;;11.56;32.71
47082;BME280;33066;49.296;14.470;2023-04-27T05:53:00;97225.10;;;11.50;32.71
47082;BME280;33066;49.296;14.470;2023-04-27T05:55:24;97225.70;;;11.16;32.81
47082;BME280;33066;49.296;14.470;2023-04-27T05:57:49;97229.26;;;11.22;32.84
47082;BME280;33066;49.296;14.470;2023-04-27T06:00:16;97230.26;;;11.39;32.56
47082;BME280;33066;49.296;14.470;2023-04-27T06:02:40;97231.51;;;11.97;32.31
47082;BME280;33066;49.296;14.470;2023-04-27T06:05:06;97231.75;;;11.81;32.36
47082;BME280;33066;49.296;14.470;2023-04-27T06:07:30;97233.15;;;11.83;32.32
47082;BME280;33066;49.296;14.470;2023-04-27T06:09:56;97229.06;;;12.12;32.17
47082;BME280;33066;49.296;14.470;2023-04-27T06:12:22;97227.53;;;11.84;32.19
47082;BME280;33066;49.296;14.470;2023-04-27T06:14:47;97223.53;;;11.93;31.93
47082;BME280;33066;49.296;14.470;2023-04-27T06:17:12;97223.73;;;11.99;32.19
47082;BME280;33066;49.296;14.470;2023-04-27T06:19:38;97225.14;;;12.04;32.48
47082;BME280;33066;49.296;14.470;2023-04-27T06:22:03;97221.57;;;12.17;32.53
47082;BME280;33066;49.296;14.470;2023-04-27T06:24:29;97219.56;;;12.21;32.63
47082;BME280;33066;49.296;14.470;2023-04-27T06:26:54;97220.55;;;12.22;32.63
47082;BME280;33066;49.296;14.470;2023-04-27T06:29:19;97224.10;;;12.34;32.45
47082;BME280;33066;49.296;14.470;2023-04-27T06:31:44;97228.25;;;12.48;32.49
47082;BME280;33066;49.296;14.470;2023-04-27T06:34:09;97228.89;;;12.35;32.57
47082;BME280;33066;49.296;14.470;2023-04-27T06:36:35;97233.92;;;12.23;32.50
47082;BME280;33066;49.296;14.470;2023-04-27T06:39:00;97232.07;;;12.62;32.40
47082;BME280;33066;49.296;14.470;2023-04-27T06:41:26;97233.12;;;12.29;32.10
47082;BME280;33066;49.296;14.470;2023-04-27T06:43:52;97236.57;;;12.86;31.98
47082;BME280;33066;49.296;14.470;2023-04-27T06:46:16;97234.13;;;12.90;31.85
47082;BME280;33066;49.296;14.470;2023-04-27T06:48:41;97237.33;;;12.79;31.79
47082;BME280;33066;49.296;14.470;2023-04-27T06:51:07;97237.80;;;12.95;31.75
47082;BME280;33066;49.296;14.470;2023-04-27T06:53:32;97234.13;;;13.11;31.74
47082;BME280;33066;49.296;14.470;2023-04-27T06:55:59;97234.65;;;12.93;31.55
47082;BME280;33066;49.296;14.470;2023-04-27T06:58:24;97240.57;;;12.88;31.33
47082;BME280;33066;49.296;14.470;2023-04-27T07:00:49;97238.69;;;13.01;31.16
47082;BME280;33066;49.296;14.470;2023-04-27T07:03:13;97236.83;;;13.34;31.33
47082;BME280;33066;49.296;14.470;2023-04-27T07:05:39;97235.59;;;13.63;30.96
47082;BME280;33066;49.296;14.470;2023-04-27T07:08:05;97234.78;;;13.19;30.97
47082;BME280;33066;49.296;14.470;2023-04-27T07:10:30;97233.95;;;13.51;31.48
47082;BME280;33066;49.296;14.470;2023-04-27T07:12:55;97237.49;;;13.46;31.71
47082;BME280;33066;49.296;14.470;2023-04-27T07:15:20;97240.54;;;13.56;31.00
47082;BME280;33066;49.296;14.470;2023-04-27T07:17:46;97237.11;;;13.74;30.46
47082;BME280;33066;49.296;14.470;2023-04-27T07:20:12;97237.38;;;13.72;30.17
47082;BME280;33066;49.296;14.470;2023-04-27T07:22:39;97233.38;;;14.04;30.25
47082;BME280;33066;49.296;14.470;2023-04-27T07:25:03;97229.51;;;13.75;30.46
47082;BME280;33066;49.296;14.470;2023-04-27T07:27:29;97234.36;;;13.73;30.74
47082;BME280;33066;49.296;14.470;2023-04-27T07:29:54;97235.89;;;14.18;29.89
47082;BME280;33066;49.296;14.470;2023-04-27T07:32:19;97239.16;;;14.23;29.49
47082;BME280;33066;49.296;14.470;2023-04-27T07:34:44;97237.25;;;14.18;29.69
47082;BME280;33066;49.296;14.470;2023-04-27T07:37:10;97234.43;;;14.20;29.31
47082;BME280;33066;49.296;14.470;2023-04-27T07:39:36;97231.62;;;14.36;28.67
47082;BME280;33066;49.296;14.470;2023-04-27T07:42:02;97234.75;;;14.48;29.36
47082;BME280;33066;49.296;14.470;2023-04-27T07:44:26;97234.00;;;14.68;29.22
47082;BME280;33066;49.296;14.470;2023-04-27T07:46:51;97240.24;;;14.54;28.67
47082;BME280;33066;49.296;14.470;2023-04-27T07:49:16;97241.77;;;14.81;27.99
47082;BME280;33066;49.296;14.470;2023-04-27T07:51:42;97243.60;;;14.96;27.88
47082;BME280;33066;49.296;14.470;2023-04-27T07:54:08;97246.36;;;14.99;27.66
47082;BME280;33066;49.296;14.470;2023-04-27T07:56:33;97245.32;;;14.85;27.75
47082;BME280;33066;49.296;14.470;2023-04-27T07:58:58;97243.45;;;15.09;27.92
47082;BME280;33066;49.296;14.470;2023-04-27T08:01:24;97245.36;;;15.33;27.69
47082;BME280;33066;49.296;14.470;2023-04-27T08:03:50;97249.21;;;15.34;27.41
47082;BME280;33066;49.296;14.470;2023-04-27T08:06:17;97253.05;;;15.32;26.88
47082;BME280;33066;49.296;14.470;2023-04-27T08:08:43;97254.86;;;15.15;26.68
47082;BME280;33066;49.296;14.470;2023-04-27T08:11:08;97254.98;;;15.01;26.52
47082;BME280;33066;49.296;14.470;2023-04-27T08:13:34;97254.93;;;14.81;26.74
47082;BME280;33066;49.296;14.470;2023-04-27T08:15:58;97249.76;;;15.31;25.70
47082;BME280;33066;49.296;14.470;2023-04-27T08:18:24;97251.03;;;14.70;25.39
47082;BME280;33066;49.296;14.470;2023-04-27T08:20:49;97251.51;;;14.67;25.86
47082;BME280;33066;49.296;14.470;2023-04-27T08:23:14;97250.94;;;14.69;26.11
47082;BME280;33066;49.296;14.470;2023-04-27T08:25:39;97249.40;;;15.00;26.35
47082;BME280;33066;49.296;14.470;2023-04-27T08:28:05;97247.29;;;15.01;25.95
47082;BME280;33066;49.296;14.470;2023-04-27T08:30:31;97246.91;;;14.88;25.05
47082;BME280;33066;49.296;14.470;2023-04-27T08:32:57;97247.37;;;14.81;25.21
47082;BME280;33066;49.296;14.470;2023-04-27T08:35:21;97250.91;;;14.98;25.70
47082;BME280;33066;49.296;14.470;2023-04-27T08:37:46;97251.13;;;15.00;26.03
47082;BME280;33066;49.296;14.470;2023-04-27T08:40:12;97247.25;;;15.05;25.71
47082;BME280;33066;49.296;14.470;2023-04-27T08:42:38;97246.87;;;14.93;25.88
47082;BME280;33066;49.296;14.470;2023-04-27T08:45:07;97245.95;;;15.19;25.84
47082;BME280;33066;49.296;14.470;2023-04-27T08:47:28;97247.30;;;14.87;26.38
47082;BME280;33066;49.296;14.470;2023-04-27T08:49:54;97247.77;;;15.47;26.15
47082;BME280;33066;49.296;14.470;2023-04-27T08:52:19;97247.36;;;15.50;25.73
47082;BME280;33066;49.296;14.470;2023-04-27T08:54:44;97250.91;;;15.49;25.72
47082;BME280;33066;49.296;14.470;2023-04-27T08:57:11;97252.04;;;15.21;25.59
47082;BME280;33066;49.296;14.470;2023-04-27T08:59:35;97250.73;;;15.97;25.18
47082;BME280;33066;49.296;14.470;2023-04-27T09:02:00;97246.84;;;15.65;25.02
47082;BME280;33066;49.296;14.470;2023-04-27T09:04:36;97249.57;;;15.83;25.38
47082;BME280;33066;49.296;14.470;2023-04-27T09:06:50;97251.44;;;15.63;24.12
47082;BME280;33066;49.296;14.470;2023-04-27T09:09:22;97251.73;;;15.89;23.96
47082;BME280;33066;49.296;14.470;2023-04-27T09:11:42;97250.21;;;16.14;23.46
47082;BME280;33066;49.296;14.470;2023-04-27T09:14:18;97242.79;;;16.01;23.58
47082;BME280;33066;49.296;14.470;2023-04-27T09:16:33;97247.10;;;16.33;24.23
47082;BME280;33066;49.296;14.470;2023-04-27T09:18:58;97244.08;;;16.26;23.30
47082;BME280;33066;49.296;14.470;2023-04-27T09:21:25;97241.91;;;16.47;24.19
47082;BME280;33066;49.296;14.470;2023-04-27T09:23:50;97243.89;;;16.57;24.08
47082;BME280;33066;49.296;14.470;2023-04-27T09:26:20;97242.52;;;16.75;24.20
47082;BME280;33066;49.296;14.470;2023-04-27T09:28:46;97242.78;;;16.68;23.30
47082;BME280;33066;49.296;14.470;2023-04-27T09:31:06;97239.03;;;16.92;23.60
47082;BME280;33066;49.296;14.470;2023-04-27T09:33:32;97243.35;;;16.78;23.72
47082;BME280;33066;49.296;14.470;2023-04-27T09:35:59;97240.84;;;16.79;22.59
47082;BME280;33066;49.296;14.470;2023-04-27T09:38:23;97239.49;;;16.55;22.68
47082;BME280;33066;49.296;14.470;2023-04-27T09:40:49;97232.52;;;16.65;23.24
47082;BME280;33066;49.296;14.470;2023-04-27T09:43:14;97222.70;;;16.89;22.92
47082;BME280;33066;49.296;14.470;2023-04-27T09:45:38;97217.92;;;17.20;23.33
47082;BME280;33066;49.296;14.470;2023-04-27T09:48:06;97218.94;;;17.34;23.40
47082;BME280;33066;49.296;14.470;2023-04-27T09:50:32;97218.51;;;17.32;22.19
47082;BME280;33066;49.296;14.470;2023-04-27T09:52:55;97218.28;;;17.55;23.09
47082;BME280;33066;49.296;14.470;2023-04-27T09:55:24;97223.74;;;17.46;22.19
47082;BME280;33066;49.296;14.470;2023-04-27T09:57:54;97219.28;;;17.63;21.66
47082;BME280;33066;49.296;14.470;2023-04-27T10:00:22;97217.67;;;17.53;21.46
47082;BME280;33066;49.296;14.470;2023-04-27T10:02:48;97212.73;;;17.51;21.12
47082;BME280;33066;49.296;14.470;2023-04-27T10:05:12;97211.30;;;17.76;21.58
47082;BME280;33066;49.296;14.470;2023-04-27T10:07:28;97210.03;;;18.06;21.47
47082;BME280;33066;49.296;14.470;2023-04-27T10:09:53;97211.96;;;18.00;20.55
47082;BME280;33066;49.296;14.470;2023-04-27T10:12:20;97206.35;;;18.09;21.01
47082;BME280;33066;49.296;14.470;2023-04-27T10:14:53;97203.22;;;18.28;21.16
47082;BME280;33066;49.296;14.470;2023-04-27T10:17:10;97203.74;;;18.46;21.23
47082;BME280;33066;49.296;14.470;2023-04-27T10:19:34;97206.69;;;18.59;21.31
47082;BME280;33066;49.296;14.470;2023-04-27T10:22:00;97209.15;;;18.69;20.94
47082;BME280;33066;49.296;14.470;2023-04-27T10:24:33;97213.16;;;18.23;20.90
47082;BME280;33066;49.296;14.470;2023-04-27T10:26:49;97214.66;;;17.96;21.22
47082;BME280;33066;49.296;14.470;2023-04-27T10:29:14;97208.81;;;18.69;20.78
47082;BME280;33066;49.296;14.470;2023-04-27T10:31:46;97202.71;;;18.66;20.58
47082;BME280;33066;49.296;14.470;2023-04-27T10:34:07;97192.14;;;19.24;19.80
47082;BME280;33066;49.296;14.470;2023-04-27T10:36:36;97187.34;;;19.44;19.70
47082;BME280;33066;49.296;14.470;2023-04-27T10:38:56;97182.59;;;19.47;19.52
47082;BME280;33066;49.296;14.470;2023-04-27T10:43:47;97184.01;;;18.49;19.83
47082;BME280;33066;49.296;14.470;2023-04-27T10:46:13;97186.94;;;18.41;20.14
47082;BME280;33066;49.296;14.470;2023-04-27T10:48:38;97188.38;;;19.06;19.97
47082;BME280;33066;49.296;14.470;2023-04-27T10:51:04;97185.84;;;19.38;19.84
47082;BME280;33066;49.296;14.470;2023-04-27T10:53:33;97187.46;;;20.13;19.56
47082;BME280;33066;49.296;14.470;2023-04-27T10:55:54;97189.51;;;19.91;19.93
47082;BME280;33066;49.296;14.470;2023-04-27T10:58:22;97192.91;;;19.59;19.20
47082;BME280;33066;49.296;14.470;2023-04-27T11:00:44;97187.91;;;19.38;18.98
47082;BME280;33066;49.296;14.470;2023-04-27T11:03:12;97182.70;;;19.18;19.73
47082;BME280;33066;49.296;14.470;2023-04-27T11:05:34;97184.58;;;19.00;19.61
47082;BME280;33066;49.296;14.470;2023-04-27T11:08:04;97182.21;;;19.07;19.74
47082;BME280;33066;49.296;14.470;2023-04-27T11:10:25;97183.21;;;19.13;19.25
47082;BME280;33066;49.296;14.470;2023-04-27T11:12:50;97180.87;;;19.96;18.30
47082;BME280;33066;49.296;14.470;2023-04-27T11:15:15;97177.08;;;20.35;17.51
47082;BME280;33066;49.296;14.470;2023-04-27T11:17:40;97170.88;;;20.78;17.35
47082;BME280;33066;49.296;14.470;2023-04-27T11:20:07;97171.37;;;21.45;16.14
47082;BME280;33066;49.296;14.470;2023-04-27T11:22:31;97170.01;;;21.29;16.38
47082;BME280;33066;49.296;14.470;2023-04-27T11:24:57;97173.08;;;21.71;16.18
47082;BME280;33066;49.296;14.470;2023-04-27T11:27:22;97171.99;;;21.95;15.64
47082;BME280;33066;49.296;14.470;2023-04-27T11:29:49;97166.92;;;22.31;15.71
47082;BME280;33066;49.296;14.470;2023-04-27T11:32:20;97164.52;;;22.22;15.31
47082;BME280;33066;49.296;14.470;2023-04-27T11:34:39;97161.18;;;22.11;15.61
47082;BME280;33066;49.296;14.470;2023-04-27T11:37:05;97164.67;;;22.42;15.58
47082;BME280;33066;49.296;14.470;2023-04-27T11:39:35;97160.08;;;22.51;15.83
47082;BME280;33066;49.296;14.470;2023-04-27T11:41:55;97157.82;;;22.71;15.11
47082;BME280;33066;49.296;14.470;2023-04-27T11:44:25;97158.97;;;22.69;15.68
47082;BME280;33066;49.296;14.470;2023-04-27T11:46:46;97163.86;;;22.45;16.03
47082;BME280;33066;49.296;14.470;2023-04-27T11:49:13;97164.55;;;22.71;16.06
47082;BME280;33066;49.296;14.470;2023-04-27T11:51:40;97162.71;;;23.02;15.76
47082;BME280;33066;49.296;14.470;2023-04-27T11:54:02;97161.04;;;23.38;15.67
47082;BME280;33066;49.296;14.470;2023-04-27T11:56:33;97157.67;;;23.69;16.02
47082;BME280;33066;49.296;14.470;2023-04-27T11:58:52;97157.91;;;24.27;15.38
47082;BME280;33066;49.296;14.470;2023-04-27T12:01:17;97159.78;;;24.28;15.22
47082;BME280;33066;49.296;14.470;2023-04-27T12:03:42;97156.40;;;24.48;15.20
47082;BME280;33066;49.296;14.470;2023-04-27T12:06:07;97153.71;;;24.64;15.58
47082;BME280;33066;49.296;14.470;2023-04-27T12:08:33;97143.60;;;24.43;15.46
47082;BME280;33066;49.296;14.470;2023-04-27T12:10:59;97150.73;;;24.40;15.58
47082;BME280;33066;49.296;14.470;2023-04-27T12:13:24;97153.38;;;24.63;15.35
47082;BME280;33066;49.296;14.470;2023-04-27T12:15:49;97155.52;;;24.71;15.11
47082;BME280;33066;49.296;14.470;2023-04-27T12:18:14;97154.29;;;24.36;14.12
47082;BME280;33066;49.296;14.470;2023-04-27T12:20:39;97155.60;;;24.64;14.09
47082;BME280;33066;49.296;14.470;2023-04-27T12:23:05;97157.71;;;24.36;14.05
47082;BME280;33066;49.296;14.470;2023-04-27T12:25:29;97155.75;;;24.42;13.85
47082;BME280;33066;49.296;14.470;2023-04-27T12:27:54;97156.86;;;24.39;13.13
47082;BME280;33066;49.296;14.470;2023-04-27T12:30:23;97160.07;;;24.95;12.96
47082;BME280;33066;49.296;14.470;2023-04-27T12:32:46;97154.10;;;25.00;13.63
47082;BME280;33066;49.296;14.470;2023-04-27T12:35:10;97155.55;;;24.98;13.62
47082;BME280;33066;49.296;14.470;2023-04-27T12:37:35;97153.06;;;25.18;13.53
47082;BME280;33066;49.296;14.470;2023-04-27T12:40:02;97148.93;;;25.52;13.26
47082;BME280;33066;49.296;14.470;2023-04-27T12:42:25;97150.32;;;25.59;13.82